Carrigaline, Ireland
Current Conditions -  °F | °C
As of 11:00 AM on Thursday 23 Oct 2014 (Local Time) from EICK Reporting Station
Broken Clouds Broken Clouds  
Wind Chill: 57°   Ceiling: 1000
Heat Index: 57°   Visibility: 6mi
Dew Point: 55°   Wind: 16mph
Humidity: 94%   Direction: 230°SW
Pressure: 29.94"   Gusts: NA
Location:  51.81°N, 8.39°W
Report Text: EICK 231100Z 23014KT 9999 BKN010 SCT022 BKN030 14/13 Q1014 NOSIG
Loading
Personal Weather Stations






























Interactive Weather Map
Tropical Storm Tracking
New forecast layout! Learn more

10-Day Weather Forecast

Advertisements
Track Severe Weather on mobile